sensor_id;sensor_type;location;lat;lon;timestamp;pressure;altitude;pressure_sealevel;temperature;humidity
7050;BME280;22263;52.260;10.548;2023-03-26T00:02:09;99345.00;;;8.63;100.00
7050;BME280;22263;52.260;10.548;2023-03-26T00:04:37;99348.94;;;8.62;100.00
7050;BME280;22263;52.260;10.548;2023-03-26T00:07:07;99345.78;;;8.64;100.00
7050;BME280;22263;52.260;10.548;2023-03-26T00:09:37;99356.03;;;8.67;100.00
7050;BME280;22263;52.260;10.548;2023-03-26T00:12:06;99348.53;;;8.64;100.00
7050;BME280;22263;52.260;10.548;2023-03-26T00:14:37;99359.56;;;8.57;100.00
7050;BME280;22263;52.260;10.548;2023-03-26T00:17:06;99364.69;;;8.62;100.00
7050;BME280;22263;52.260;10.548;2023-03-26T00:19:35;99363.50;;;8.56;100.00
7050;BME280;22263;52.260;10.548;2023-03-26T00:22:05;99367.84;;;8.53;100.00
7050;BME280;22263;52.260;10.548;2023-03-26T00:24:36;99372.16;;;8.54;100.00
7050;BME280;22263;52.260;10.548;2023-03-26T00:27:06;99359.56;;;8.57;100.00
7050;BME280;22263;52.260;10.548;2023-03-26T00:29:36;99372.56;;;8.60;100.00
7050;BME280;22263;52.260;10.548;2023-03-26T00:32:05;99373.34;;;8.60;100.00
7050;BME280;22263;52.260;10.548;2023-03-26T00:34:33;99372.56;;;8.67;100.00
7050;BME280;22263;52.260;10.548;2023-03-26T00:37:02;99369.41;;;8.68;100.00
7050;BME280;22263;52.260;10.548;2023-03-26T00:39:33;99371.78;;;8.63;100.00
7050;BME280;22263;52.260;10.548;2023-03-26T00:42:03;99365.09;;;8.67;100.00
7050;BME280;22263;52.260;10.548;2023-03-26T00:44:33;99370.59;;;8.78;100.00
7050;BME280;22263;52.260;10.548;2023-03-26T00:47:03;99369.44;;;8.86;100.00
7050;BME280;22263;52.260;10.548;2023-03-26T00:49:33;99358.78;;;8.81;100.00
7050;BME280;22263;52.260;10.548;2023-03-26T00:52:02;99363.50;;;8.84;100.00
7050;BME280;22263;52.260;10.548;2023-03-26T00:54:34;99367.06;;;8.92;100.00
7050;BME280;22263;52.260;10.548;2023-03-26T00:57:02;99360.34;;;8.89;100.00
7050;BME280;22263;52.260;10.548;2023-03-26T00:59:38;99367.47;;;8.87;100.00
7050;BME280;22263;52.260;10.548;2023-03-26T01:02:11;99377.69;;;8.86;100.00
7050;BME280;22263;52.260;10.548;2023-03-26T01:04:44;99367.06;;;8.81;100.00
7050;BME280;22263;52.260;10.548;2023-03-26T01:07:15;99381.25;;;8.76;100.00
7050;BME280;22263;52.260;10.548;2023-03-26T01:09:48;99368.63;;;8.64;100.00
7050;BME280;22263;52.260;10.548;2023-03-26T01:12:21;99380.81;;;8.60;100.00
7050;BME280;22263;52.260;10.548;2023-03-26T01:14:54;99392.25;;;8.48;100.00
7050;BME280;22263;52.260;10.548;2023-03-26T01:17:28;99395.75;;;8.45;100.00
7050;BME280;22263;52.260;10.548;2023-03-26T01:20:05;99400.09;;;8.39;100.00
7050;BME280;22263;52.260;10.548;2023-03-26T01:22:43;99404.03;;;8.34;100.00
7050;BME280;22263;52.260;10.548;2023-03-26T01:25:18;99403.22;;;8.41;100.00
7050;BME280;22263;52.260;10.548;2023-03-26T01:27:49;99407.56;;;8.38;100.00
7050;BME280;22263;52.260;10.548;2023-03-26T01:30:23;99409.13;;;8.36;100.00
7050;BME280;22263;52.260;10.548;2023-03-26T01:33:00;99424.47;;;8.37;100.00
7050;BME280;22263;52.260;10.548;2023-03-26T01:35:39;99419.75;;;8.34;100.00
7050;BME280;22263;52.260;10.548;2023-03-26T01:38:18;99420.13;;;8.36;100.00
7050;BME280;22263;52.260;10.548;2023-03-26T01:40:57;99420.53;;;8.30;100.00
7050;BME280;22263;52.260;10.548;2023-03-26T01:43:31;99414.97;;;8.23;100.00
7050;BME280;22263;52.260;10.548;2023-03-26T01:46:06;99424.41;;;8.26;100.00
7050;BME280;22263;52.260;10.548;2023-03-26T01:48:38;99427.16;;;8.22;100.00
7050;BME280;22263;52.260;10.548;2023-03-26T01:51:09;99421.25;;;8.20;100.00
7050;BME280;22263;52.260;10.548;2023-03-26T01:53:41;99428.72;;;8.16;100.00
7050;BME280;22263;52.260;10.548;2023-03-26T01:56:18;99414.19;;;8.19;100.00
7050;BME280;22263;52.260;10.548;2023-03-26T01:59:00;99413.41;;;8.22;100.00
7050;BME280;22263;52.260;10.548;2023-03-26T02:01:38;99414.19;;;8.23;100.00
7050;BME280;22263;52.260;10.548;2023-03-26T02:04:15;99419.69;;;8.26;100.00
7050;BME280;22263;52.260;10.548;2023-03-26T02:06:50;99420.09;;;8.28;100.00
7050;BME280;22263;52.260;10.548;2023-03-26T02:09:25;99418.13;;;8.25;100.00
7050;BME280;22263;52.260;10.548;2023-03-26T02:12:00;99411.06;;;8.28;100.00
7050;BME280;22263;52.260;10.548;2023-03-26T02:14:33;99408.28;;;8.24;100.00
7050;BME280;22263;52.260;10.548;2023-03-26T02:17:01;99416.97;;;8.30;100.00
7050;BME280;22263;52.260;10.548;2023-03-26T02:19:31;99404.34;;;8.25;100.00
7050;BME280;22263;52.260;10.548;2023-03-26T02:21:59;99395.31;;;8.28;100.00
7050;BME280;22263;52.260;10.548;2023-03-26T02:24:30;99402.38;;;8.22;100.00
7050;BME280;22263;52.260;10.548;2023-03-26T02:27:01;99392.16;;;8.23;100.00
7050;BME280;22263;52.260;10.548;2023-03-26T02:29:33;99401.19;;;8.20;100.00
7050;BME280;22263;52.260;10.548;2023-03-26T02:32:04;99399.25;;;8.27;100.00
7050;BME280;22263;52.260;10.548;2023-03-26T02:34:32;99393.34;;;8.29;100.00
7050;BME280;22263;52.260;10.548;2023-03-26T02:37:03;99390.59;;;8.29;100.00
7050;BME280;22263;52.260;10.548;2023-03-26T02:39:31;99392.53;;;8.25;100.00
7050;BME280;22263;52.260;10.548;2023-03-26T02:42:09;99383.50;;;8.24;100.00
7050;BME280;22263;52.260;10.548;2023-03-26T02:44:44;99394.56;;;8.35;100.00
7050;BME280;22263;52.260;10.548;2023-03-26T02:47:16;99392.22;;;8.34;100.00
7050;BME280;22263;52.260;10.548;2023-03-26T02:49:51;99401.25;;;8.30;100.00
7050;BME280;22263;52.260;10.548;2023-03-26T02:52:25;99399.69;;;8.29;100.00
7050;BME280;22263;52.260;10.548;2023-03-26T02:54:56;99391.81;;;8.31;100.00
7050;BME280;22263;52.260;10.548;2023-03-26T02:57:27;99384.28;;;8.25;100.00
7050;BME280;22263;52.260;10.548;2023-03-26T02:59:56;99392.94;;;8.23;100.00
7050;BME280;22263;52.260;10.548;2023-03-26T03:02:37;99385.47;;;8.27;100.00
7050;BME280;22263;52.260;10.548;2023-03-26T03:05:24;99387.03;;;8.25;100.00
7050;BME280;22263;52.260;10.548;2023-03-26T03:08:06;99377.22;;;8.27;100.00
7050;BME280;22263;52.260;10.548;2023-03-26T03:10:39;99381.94;;;8.23;100.00
7050;BME280;22263;52.260;10.548;2023-03-26T03:13:30;99379.97;;;8.24;100.00
7050;BME280;22263;52.260;10.548;2023-03-26T03:15:59;99378.38;;;8.26;100.00
7050;BME280;22263;52.260;10.548;2023-03-26T03:18:30;99386.66;;;8.19;100.00
7050;BME280;22263;52.260;10.548;2023-03-26T03:20:59;99374.03;;;8.15;100.00
7050;BME280;22263;52.260;10.548;2023-03-26T03:23:28;99379.56;;;8.18;100.00
7050;BME280;22263;52.260;10.548;2023-03-26T03:26:11;99374.81;;;8.15;100.00
7050;BME280;22263;52.260;10.548;2023-03-26T03:28:45;99383.50;;;8.24;100.00
7050;BME280;22263;52.260;10.548;2023-03-26T03:31:15;99374.84;;;8.19;100.00
7050;BME280;22263;52.260;10.548;2023-03-26T03:33:44;99372.88;;;8.23;100.00
7050;BME280;22263;52.260;10.548;2023-03-26T03:36:15;99374.47;;;8.27;100.00
7050;BME280;22263;52.260;10.548;2023-03-26T03:38:56;99369.31;;;8.22;100.00
7050;BME280;22263;52.260;10.548;2023-03-26T03:41:27;99377.97;;;8.21;100.00
7050;BME280;22263;52.260;10.548;2023-03-26T03:44:00;99377.56;;;8.15;100.00
7050;BME280;22263;52.260;10.548;2023-03-26T03:46:30;99381.50;;;8.18;100.00
7050;BME280;22263;52.260;10.548;2023-03-26T03:48:59;99379.56;;;8.22;100.00
7050;BME280;22263;52.260;10.548;2023-03-26T03:51:34;99387.47;;;8.30;100.00
7050;BME280;22263;52.260;10.548;2023-03-26T03:54:10;99387.44;;;8.23;100.00
7050;BME280;22263;52.260;10.548;2023-03-26T03:56:59;99384.28;;;8.18;100.00
7050;BME280;22263;52.260;10.548;2023-03-26T03:59:33;99381.50;;;8.14;100.00
7050;BME280;22263;52.260;10.548;2023-03-26T04:02:05;99381.91;;;8.16;100.00
7050;BME280;22263;52.260;10.548;2023-03-26T04:04:50;99379.94;;;8.13;100.00
7050;BME280;22263;52.260;10.548;2023-03-26T04:07:20;99379.16;;;8.16;100.00
7050;BME280;22263;52.260;10.548;2023-03-26T04:10:15;99379.56;;;8.15;100.00
7050;BME280;22263;52.260;10.548;2023-03-26T04:13:19;99373.63;;;8.16;100.00
7050;BME280;22263;52.260;10.548;2023-03-26T04:16:09;99381.50;;;8.21;100.00
7050;BME280;22263;52.260;10.548;2023-03-26T04:18:38;99376.41;;;8.20;100.00
7050;BME280;22263;52.260;10.548;2023-03-26T04:21:13;99383.84;;;8.16;100.00
7050;BME280;22263;52.260;10.548;2023-03-26T04:23:43;99376.38;;;8.16;100.00
7050;BME280;22263;52.260;10.548;2023-03-26T04:26:38;99370.09;;;8.16;100.00
7050;BME280;22263;52.260;10.548;2023-03-26T04:29:13;99374.44;;;8.17;100.00
7050;BME280;22263;52.260;10.548;2023-03-26T04:31:46;99363.41;;;8.13;100.00
7050;BME280;22263;52.260;10.548;2023-03-26T04:34:19;99365.38;;;8.16;100.00
7050;BME280;22263;52.260;10.548;2023-03-26T04:36:58;99369.72;;;8.17;100.00
7050;BME280;22263;52.260;10.548;2023-03-26T04:39:36;99374.81;;;8.12;100.00
7050;BME280;22263;52.260;10.548;2023-03-26T04:42:28;99370.88;;;8.13;100.00
7050;BME280;22263;52.260;10.548;2023-03-26T04:45:07;99371.66;;;8.13;100.00
7050;BME280;22263;52.260;10.548;2023-03-26T04:47:40;99371.66;;;8.17;100.00
7050;BME280;22263;52.260;10.548;2023-03-26T04:50:10;99366.53;;;8.08;100.00
7050;BME280;22263;52.260;10.548;2023-03-26T04:52:40;99360.66;;;8.10;100.00
7050;BME280;22263;52.260;10.548;2023-03-26T04:55:33;99364.16;;;8.03;100.00
7050;BME280;22263;52.260;10.548;2023-03-26T04:58:13;99359.44;;;8.00;100.00
7050;BME280;22263;52.260;10.548;2023-03-26T05:00:52;99364.16;;;8.03;100.00
7050;BME280;22263;52.260;10.548;2023-03-26T05:03:22;99360.22;;;7.97;100.00
7050;BME280;22263;52.260;10.548;2023-03-26T05:05:59;99362.59;;;7.95;100.00
7050;BME280;22263;52.260;10.548;2023-03-26T05:08:29;99364.53;;;7.98;100.00
7050;BME280;22263;52.260;10.548;2023-03-26T05:10:58;99363.38;;;7.99;100.00
7050;BME280;22263;52.260;10.548;2023-03-26T05:13:32;99366.09;;;7.92;100.00
7050;BME280;22263;52.260;10.548;2023-03-26T05:16:07;99364.13;;;7.96;100.00
7050;BME280;22263;52.260;10.548;2023-03-26T05:18:56;99364.53;;;7.98;100.00
7050;BME280;22263;52.260;10.548;2023-03-26T05:21:29;99363.38;;;7.99;100.00
7050;BME280;22263;52.260;10.548;2023-03-26T05:23:58;99361.38;;;7.85;100.00
7050;BME280;22263;52.260;10.548;2023-03-26T05:26:27;99364.91;;;7.89;100.00
7050;BME280;22263;52.260;10.548;2023-03-26T05:28:56;99363.31;;;7.85;100.00
7050;BME280;22263;52.260;10.548;2023-03-26T05:31:31;99363.34;;;7.88;100.00
7050;BME280;22263;52.260;10.548;2023-03-26T05:34:02;99362.53;;;7.88;100.00
7050;BME280;22263;52.260;10.548;2023-03-26T05:36:32;99362.94;;;7.90;100.00
7050;BME280;22263;52.260;10.548;2023-03-26T05:39:15;99354.69;;;7.90;100.00
7050;BME280;22263;52.260;10.548;2023-03-26T05:42:06;99365.72;;;7.90;100.00
7050;BME280;22263;52.260;10.548;2023-03-26T05:44:50;99361.38;;;7.96;100.00
7050;BME280;22263;52.260;10.548;2023-03-26T05:47:25;99357.50;;;8.08;100.00
7050;BME280;22263;52.260;10.548;2023-03-26T05:49:57;99348.84;;;8.16;100.00
7050;BME280;22263;52.260;10.548;2023-03-26T05:52:25;99347.72;;;8.31;100.00
7050;BME280;22263;52.260;10.548;2023-03-26T05:55:26;99348.56;;;8.53;100.00
7050;BME280;22263;52.260;10.548;2023-03-26T05:58:17;99352.47;;;8.70;100.00
7050;BME280;22263;52.260;10.548;2023-03-26T06:01:07;99335.94;;;8.84;100.00
7050;BME280;22263;52.260;10.548;2023-03-26T06:03:58;99337.13;;;8.90;100.00
7050;BME280;22263;52.260;10.548;2023-03-26T06:06:32;99337.13;;;9.85;100.00
7050;BME280;22263;52.260;10.548;2023-03-26T06:09:01;99329.25;;;8.96;100.00
7050;BME280;22263;52.260;10.548;2023-03-26T06:11:30;99322.91;;;9.09;100.00
7050;BME280;22263;52.260;10.548;2023-03-26T06:14:01;99324.47;;;9.17;100.00
7050;BME280;22263;52.260;10.548;2023-03-26T06:16:30;99319.75;;;9.07;100.00
7050;BME280;22263;52.260;10.548;2023-03-26T06:19:28;99312.69;;;9.10;100.00
7050;BME280;22263;52.260;10.548;2023-03-26T06:22:06;99313.44;;;9.25;100.00
7050;BME280;22263;52.260;10.548;2023-03-26T06:24:53;99315.78;;;9.30;100.00
7050;BME280;22263;52.260;10.548;2023-03-26T06:27:42;99318.09;;;9.42;100.00
7050;BME280;22263;52.260;10.548;2023-03-26T06:30:30;99316.13;;;9.49;100.00
7050;BME280;22263;52.260;10.548;2023-03-26T06:33:05;99303.09;;;9.53;100.00
7050;BME280;22263;52.260;10.548;2023-03-26T06:35:41;99319.66;;;9.46;100.00
7050;BME280;22263;52.260;10.548;2023-03-26T06:38:14;99313.75;;;9.44;100.00
7050;BME280;22263;52.260;10.548;2023-03-26T06:40:42;99311.41;;;9.39;100.00
7050;BME280;22263;52.260;10.548;2023-03-26T06:43:38;99313.34;;;9.46;100.00
7050;BME280;22263;52.260;10.548;2023-03-26T06:46:18;99312.16;;;9.54;100.00
7050;BME280;22263;52.260;10.548;2023-03-26T06:48:54;99316.78;;;9.78;100.00
7050;BME280;22263;52.260;10.548;2023-03-26T06:51:46;99318.56;;;10.10;100.00
7050;BME280;22263;52.260;10.548;2023-03-26T06:54:36;99315.31;;;10.29;100.00
7050;BME280;22263;52.260;10.548;2023-03-26T06:57:23;99307.75;;;10.36;100.00
7050;BME280;22263;52.260;10.548;2023-03-26T07:00:24;99311.00;;;10.24;100.00
7050;BME280;22263;52.260;10.548;2023-03-26T07:03:11;99305.09;;;10.22;100.00
7050;BME280;22263;52.260;10.548;2023-03-26T07:06:01;99307.16;;;10.04;100.00
7050;BME280;22263;52.260;10.548;2023-03-26T07:08:49;99304.41;;;10.00;100.00
7050;BME280;22263;52.260;10.548;2023-03-26T07:11:38;99308.69;;;10.08;100.00
7050;BME280;22263;52.260;10.548;2023-03-26T07:14:29;99308.75;;;9.98;100.00
7050;BME280;22263;52.260;10.548;2023-03-26T07:17:11;99307.94;;;10.04;100.00
7050;BME280;22263;52.260;10.548;2023-03-26T07:19:48;99305.94;;;10.08;100.00
7050;BME280;22263;52.260;10.548;2023-03-26T07:22:22;99298.16;;;9.89;100.00
7050;BME280;22263;52.260;10.548;2023-03-26T07:25:13;99304.16;;;9.77;100.00
7050;BME280;22263;52.260;10.548;2023-03-26T07:28:08;99286.31;;;9.92;100.00
7050;BME280;22263;52.260;10.548;2023-03-26T07:31:06;99283.13;;;9.94;100.00
7050;BME280;22263;52.260;10.548;2023-03-26T07:33:48;99288.97;;;10.10;100.00
7050;BME280;22263;52.260;10.548;2023-03-26T07:36:33;99275.91;;;10.14;100.00
7050;BME280;22263;52.260;10.548;2023-03-26T07:39:33;99292.91;;;10.16;100.00
7050;BME280;22263;52.260;10.548;2023-03-26T07:42:22;99281.00;;;10.26;100.00
7050;BME280;22263;52.260;10.548;2023-03-26T07:45:37;99276.59;;;10.36;100.00
7050;BME280;22263;52.260;10.548;2023-03-26T07:48:23;99277.31;;;10.43;100.00
7050;BME280;22263;52.260;10.548;2023-03-26T07:50:59;99276.88;;;10.48;100.00
7050;BME280;22263;52.260;10.548;2023-03-26T07:53:47;99283.53;;;10.55;100.00
7050;BME280;22263;52.260;10.548;2023-03-26T07:56:37;99275.69;;;10.49;100.00
7050;BME280;22263;52.260;10.548;2023-03-26T07:59:32;99274.50;;;10.47;100.00
7050;BME280;22263;52.260;10.548;2023-03-26T08:02:47;99272.00;;;10.12;100.00
7050;BME280;22263;52.260;10.548;2023-03-26T08:06:04;99267.63;;;10.21;100.00
7050;BME280;22263;52.260;10.548;2023-03-26T08:08:59;99273.53;;;10.20;100.00
7050;BME280;22263;52.260;10.548;2023-03-26T08:11:52;99273.47;;;10.27;100.00
7050;BME280;22263;52.260;10.548;2023-03-26T08:14:35;99266.88;;;10.10;100.00
7050;BME280;22263;52.260;10.548;2023-03-26T08:17:09;99269.06;;;10.36;100.00
7050;BME280;22263;52.260;10.548;2023-03-26T08:19:49;99259.50;;;10.48;100.00
7050;BME280;22263;52.260;10.548;2023-03-26T08:22:26;99263.63;;;10.74;100.00
7050;BME280;22263;52.260;10.548;2023-03-26T08:25:15;99262.69;;;10.84;100.00
7050;BME280;22263;52.260;10.548;2023-03-26T08:27:53;99268.75;;;10.72;100.00
7050;BME280;22263;52.260;10.548;2023-03-26T08:30:27;99268.41;;;10.66;100.00
7050;BME280;22263;52.260;10.548;2023-03-26T08:32:58;99273.19;;;10.62;100.00
7050;BME280;22263;52.260;10.548;2023-03-26T08:35:29;99267.69;;;10.59;100.00
7050;BME280;22263;52.260;10.548;2023-03-26T08:37:59;99266.31;;;10.81;100.00
7050;BME280;22263;52.260;10.548;2023-03-26T08:43:59;99245.84;;;11.12;100.00
7050;BME280;22263;52.260;10.548;2023-03-26T08:46:55;99255.91;;;11.29;100.00
7050;BME280;22263;52.260;10.548;2023-03-26T08:49:41;99250.31;;;11.33;100.00
7050;BME280;22263;52.260;10.548;2023-03-26T08:52:40;99260.13;;;11.07;100.00
7050;BME280;22263;52.260;10.548;2023-03-26T08:55:31;99264.25;;;11.26;100.00
7050;BME280;22263;52.260;10.548;2023-03-26T09:01:54;99266.06;;;11.40;100.00
7050;BME280;22263;52.260;10.548;2023-03-26T09:08:08;99263.63;;;11.45;100.00
7050;BME280;22263;52.260;10.548;2023-03-26T09:10:49;99261.81;;;11.62;100.00
7050;BME280;22263;52.260;10.548;2023-03-26T09:13:55;99257.63;;;11.80;100.00
7050;BME280;22263;52.260;10.548;2023-03-26T09:23:20;99256.41;;;12.12;100.00
7050;BME280;22263;52.260;10.548;2023-03-26T09:32:30;99246.66;;;13.56;100.00
7050;BME280;22263;52.260;10.548;2023-03-26T09:35:12;99246.22;;;13.58;100.00
7050;BME280;22263;52.260;10.548;2023-03-26T09:37:58;99244.66;;;13.92;100.00
7050;BME280;22263;52.260;10.548;2023-03-26T09:40:40;99236.84;;;15.01;100.00
7050;BME280;22263;52.260;10.548;2023-03-26T09:43:30;99241.63;;;15.29;100.00
7050;BME280;22263;52.260;10.548;2023-03-26T09:46:13;99227.13;;;15.88;100.00
7050;BME280;22263;52.260;10.548;2023-03-26T09:49:02;99226.56;;;17.56;100.00
7050;BME280;22263;52.260;10.548;2023-03-26T09:51:51;99227.44;;;18.46;82.99
7050;BME280;22263;52.260;10.548;2023-03-26T09:54:44;99224.19;;;17.67;77.40
7050;BME280;22263;52.260;10.548;2023-03-26T09:57:28;99231.91;;;17.20;81.96
7050;BME280;22263;52.260;10.548;2023-03-26T10:00:21;99219.97;;;16.97;85.30
7050;BME280;22263;52.260;10.548;2023-03-26T10:03:12;99236.16;;;16.90;83.11
7050;BME280;22263;52.260;10.548;2023-03-26T10:05:56;99233.47;;;16.39;91.03
7050;BME280;22263;52.260;10.548;2023-03-26T10:08:40;99214.16;;;16.45;89.49
7050;BME280;22263;52.260;10.548;2023-03-26T10:11:20;99210.63;;;16.79;90.76
7050;BME280;22263;52.260;10.548;2023-03-26T10:14:01;99216.47;;;16.93;83.96
7050;BME280;22263;52.260;10.548;2023-03-26T10:16:37;99210.59;;;17.13;87.80
7050;BME280;22263;52.260;10.548;2023-03-26T10:19:24;99199.59;;;17.62;84.58
7050;BME280;22263;52.260;10.548;2023-03-26T10:22:01;99194.38;;;17.52;87.45
7050;BME280;22263;52.260;10.548;2023-03-26T10:24:40;99196.81;;;17.40;85.38
7050;BME280;22263;52.260;10.548;2023-03-26T10:27:23;99183.25;;;17.82;83.55
7050;BME280;22263;52.260;10.548;2023-03-26T10:33:13;99186.00;;;17.52;81.88
7050;BME280;22263;52.260;10.548;2023-03-26T10:35:58;99184.56;;;16.47;88.05
7050;BME280;22263;52.260;10.548;2023-03-26T10:38:40;99194.13;;;15.74;94.99
7050;BME280;22263;52.260;10.548;2023-03-26T10:41:17;99192.94;;;15.34;100.00
7050;BME280;22263;52.260;10.548;2023-03-26T10:44:08;99187.72;;;15.07;100.00
7050;BME280;22263;52.260;10.548;2023-03-26T10:47:09;99193.88;;;14.40;100.00
7050;BME280;22263;52.260;10.548;2023-03-26T10:50:22;99191.53;;;14.23;100.00
7050;BME280;22263;52.260;10.548;2023-03-26T10:52:58;99191.09;;;14.24;100.00
7050;BME280;22263;52.260;10.548;2023-03-26T10:55:31;99184.59;;;14.15;100.00
7050;BME280;22263;52.260;10.548;2023-03-26T10:58:10;99194.19;;;14.10;100.00
7050;BME280;22263;52.260;10.548;2023-03-26T11:00:48;99190.81;;;14.03;100.00
7050;BME280;22263;52.260;10.548;2023-03-26T11:03:44;99193.25;;;13.84;100.00
7050;BME280;22263;52.260;10.548;2023-03-26T11:06:31;99190.81;;;13.50;100.00
7050;BME280;22263;52.260;10.548;2023-03-26T11:09:19;99181.03;;;13.26;100.00
7050;BME280;22263;52.260;10.548;2023-03-26T11:11:55;99187.16;;;13.18;100.00
7050;BME280;22263;52.260;10.548;2023-03-26T11:14:54;99190.50;;;13.09;100.00
7050;BME280;22263;52.260;10.548;2023-03-26T11:17:33;99189.34;;;13.06;100.00
7050;BME280;22263;52.260;10.548;2023-03-26T11:20:12;99196.88;;;13.06;100.00
7050;BME280;22263;52.260;10.548;2023-03-26T11:22:57;99191.31;;;12.86;100.00
7050;BME280;22263;52.260;10.548;2023-03-26T11:25:46;99196.66;;;12.77;100.00
7050;BME280;22263;52.260;10.548;2023-03-26T11:28:30;99191.81;;;12.81;100.00
7050;BME280;22263;52.260;10.548;2023-03-26T11:31:07;99181.66;;;12.94;100.00
7050;BME280;22263;52.260;10.548;2023-03-26T11:33:46;99177.09;;;13.43;100.00
7050;BME280;22263;52.260;10.548;2023-03-26T11:36:19;99171.44;;;13.83;100.00
7050;BME280;22263;52.260;10.548;2023-03-26T11:38:53;99170.84;;;14.24;100.00
7050;BME280;22263;52.260;10.548;2023-03-26T11:41:29;99178.03;;;14.54;100.00
7050;BME280;22263;52.260;10.548;2023-03-26T11:44:23;99168.16;;;14.53;100.00
7050;BME280;22263;52.260;10.548;2023-03-26T11:46:56;99176.22;;;14.47;100.00
7050;BME280;22263;52.260;10.548;2023-03-26T11:49:27;99176.91;;;14.51;100.00
7050;BME280;22263;52.260;10.548;2023-03-26T11:51:56;99166.31;;;14.62;100.00
7050;BME280;22263;52.260;10.548;2023-03-26T11:54:29;99172.09;;;14.68;100.00
7050;BME280;22263;52.260;10.548;2023-03-26T11:57:03;99176.41;;;15.26;100.00
7050;BME280;22263;52.260;10.548;2023-03-26T11:59:36;99166.34;;;15.96;100.00
7050;BME280;22263;52.260;10.548;2023-03-26T12:02:25;99162.38;;;16.44;100.00
7050;BME280;22263;52.260;10.548;2023-03-26T12:05:10;99165.69;;;17.08;95.29
7050;BME280;22263;52.260;10.548;2023-03-26T12:07:45;99159.28;;;17.20;90.79
7050;BME280;22263;52.260;10.548;2023-03-26T12:10:25;99164.94;;;17.07;90.15
7050;BME280;22263;52.260;10.548;2023-03-26T12:12:57;99159.19;;;16.20;92.35
7050;BME280;22263;52.260;10.548;2023-03-26T12:15:27;99162.69;;;15.61;95.75
7050;BME280;22263;52.260;10.548;2023-03-26T12:17:59;99169.06;;;15.20;98.80
7050;BME280;22263;52.260;10.548;2023-03-26T12:20:44;99165.19;;;15.01;100.00
7050;BME280;22263;52.260;10.548;2023-03-26T12:23:49;99170.31;;;14.90;100.00
7050;BME280;22263;52.260;10.548;2023-03-26T12:26:30;99164.53;;;14.68;100.00
7050;BME280;22263;52.260;10.548;2023-03-26T12:29:06;99159.53;;;14.31;100.00
7050;BME280;22263;52.260;10.548;2023-03-26T12:31:53;99159.28;;;14.09;100.00
7050;BME280;22263;52.260;10.548;2023-03-26T12:34:28;99155.63;;;14.12;100.00
7050;BME280;22263;52.260;10.548;2023-03-26T12:37:01;99154.69;;;14.19;100.00
7050;BME280;22263;52.260;10.548;2023-03-26T12:39:33;99157.38;;;14.06;100.00
7050;BME280;22263;52.260;10.548;2023-03-26T12:42:27;99148.59;;;14.08;100.00
7050;BME280;22263;52.260;10.548;2023-03-26T12:45:19;99147.81;;;13.91;100.00
7050;BME280;22263;52.260;10.548;2023-03-26T12:47:50;99143.13;;;13.88;100.00
7050;BME280;22263;52.260;10.548;2023-03-26T12:50:39;99154.78;;;13.99;100.00
7050;BME280;22263;52.260;10.548;2023-03-26T12:53:32;99146.75;;;14.01;100.00
7050;BME280;22263;52.260;10.548;2023-03-26T12:56:11;99150.59;;;13.91;100.00
7050;BME280;22263;52.260;10.548;2023-03-26T12:59:10;99152.28;;;13.52;100.00
7050;BME280;22263;52.260;10.548;2023-03-26T13:01:51;99162.22;;;13.34;100.00
7050;BME280;22263;52.260;10.548;2023-03-26T13:04:32;99154.28;;;13.16;100.00
7050;BME280;22263;52.260;10.548;2023-03-26T13:07:11;99149.09;;;13.18;100.00
7050;BME280;22263;52.260;10.548;2023-03-26T13:09:57;99149.78;;;13.22;100.00
7050;BME280;22263;52.260;10.548;2023-03-26T13:12:38;99150.22;;;13.21;100.00
7050;BME280;22263;52.260;10.548;2023-03-26T13:15:21;99143.38;;;13.25;100.00
7050;BME280;22263;52.260;10.548;2023-03-26T13:18:03;99141.75;;;13.28;100.00
7050;BME280;22263;52.260;10.548;2023-03-26T13:20:46;99144.72;;;13.37;100.00
7050;BME280;22263;52.260;10.548;2023-03-26T13:23:28;99136.47;;;13.49;100.00
7050;BME280;22263;52.260;10.548;2023-03-26T13:26:08;99132.16;;;13.65;100.00
7050;BME280;22263;52.260;10.548;2023-03-26T13:28:46;99124.78;;;13.58;100.00
7050;BME280;22263;52.260;10.548;2023-03-26T13:31:23;99128.19;;;13.66;100.00
7050;BME280;22263;52.260;10.548;2023-03-26T13:34:00;99122.47;;;13.89;100.00
7050;BME280;22263;52.260;10.548;2023-03-26T13:36:37;99115.41;;;14.01;100.00
7050;BME280;22263;52.260;10.548;2023-03-26T13:39:22;99118.69;;;14.28;100.00
7050;BME280;22263;52.260;10.548;2023-03-26T13:42:09;99122.94;;;14.32;100.00
7050;BME280;22263;52.260;10.548;2023-03-26T13:44:50;99118.78;;;14.24;100.00
7050;BME280;22263;52.260;10.548;2023-03-26T13:47:36;99111.66;;;14.23;100.00
7050;BME280;22263;52.260;10.548;2023-03-26T13:50:17;99109.00;;;14.04;100.00
7050;BME280;22263;52.260;10.548;2023-03-26T13:52:49;99103.69;;;13.93;100.00
7050;BME280;22263;52.260;10.548;2023-03-26T13:55:24;99107.63;;;13.95;100.00
7050;BME280;22263;52.260;10.548;2023-03-26T13:58:00;99102.81;;;13.64;100.00
7050;BME280;22263;52.260;10.548;2023-03-26T14:00:48;99095.88;;;13.72;100.00
7050;BME280;22263;52.260;10.548;2023-03-26T14:03:25;99104.56;;;13.74;100.00
7050;BME280;22263;52.260;10.548;2023-03-26T14:06:00;99097.28;;;13.80;100.00
7050;BME280;22263;52.260;10.548;2023-03-26T14:08:36;99100.16;;;13.76;100.00
7050;BME280;22263;52.260;10.548;2023-03-26T14:11:08;99096.41;;;13.67;100.00
7050;BME280;22263;52.260;10.548;2023-03-26T14:13:45;99097.97;;;13.68;100.00
7050;BME280;22263;52.260;10.548;2023-03-26T14:16:19;99104.63;;;13.38;100.00
7050;BME280;22263;52.260;10.548;2023-03-26T14:18:56;99101.03;;;13.21;100.00
7050;BME280;22263;52.260;10.548;2023-03-26T14:21:43;99105.50;;;13.15;100.00
7050;BME280;22263;52.260;10.548;2023-03-26T14:27:22;99108.16;;;12.83;100.00
7050;BME280;22263;52.260;10.548;2023-03-26T14:30:03;99102.97;;;12.65;100.00